sensor_id;sensor_type;location;lat;lon;timestamp;P1;durP1;ratioP1;P2;durP2;ratioP2
6013;SDS011;3035;49.928;8.410;2023-04-16T00:02:16;12.00;;;5.40;;
6013;SDS011;3035;49.928;8.410;2023-04-16T00:04:45;9.43;;;6.10;;
6013;SDS011;3035;49.928;8.410;2023-04-16T00:07:13;9.03;;;5.77;;
6013;SDS011;3035;49.928;8.410;2023-04-16T00:09:42;8.07;;;6.00;;
6013;SDS011;3035;49.928;8.410;2023-04-16T00:12:11;9.30;;;6.67;;
6013;SDS011;3035;49.928;8.410;2023-04-16T00:14:39;8.33;;;5.43;;
6013;SDS011;3035;49.928;8.410;2023-04-16T00:17:08;9.53;;;5.90;;
6013;SDS011;3035;49.928;8.410;2023-04-16T00:19:37;9.10;;;6.50;;
6013;SDS011;3035;49.928;8.410;2023-04-16T00:22:05;9.63;;;7.00;;
6013;SDS011;3035;49.928;8.410;2023-04-16T00:24:34;11.13;;;6.53;;
6013;SDS011;3035;49.928;8.410;2023-04-16T00:27:02;7.13;;;6.10;;
6013;SDS011;3035;49.928;8.410;2023-04-16T00:29:30;7.67;;;6.07;;
6013;SDS011;3035;49.928;8.410;2023-04-16T00:32:03;8.40;;;6.60;;
6013;SDS011;3035;49.928;8.410;2023-04-16T00:34:32;12.00;;;6.37;;
6013;SDS011;3035;49.928;8.410;2023-04-16T00:37:01;10.40;;;5.70;;
6013;SDS011;3035;49.928;8.410;2023-04-16T00:39:29;8.13;;;5.80;;
6013;SDS011;3035;49.928;8.410;2023-04-16T00:41:58;8.87;;;6.57;;
6013;SDS011;3035;49.928;8.410;2023-04-16T00:44:26;7.40;;;5.70;;
6013;SDS011;3035;49.928;8.410;2023-04-16T00:46:55;8.00;;;6.50;;
6013;SDS011;3035;49.928;8.410;2023-04-16T00:49:23;8.40;;;6.10;;
6013;SDS011;3035;49.928;8.410;2023-04-16T00:51:52;7.83;;;6.10;;
6013;SDS011;3035;49.928;8.410;2023-04-16T00:54:20;9.00;;;6.13;;
6013;SDS011;3035;49.928;8.410;2023-04-16T00:56:49;9.10;;;6.10;;
6013;SDS011;3035;49.928;8.410;2023-04-16T00:59:18;11.13;;;6.60;;
6013;SDS011;3035;49.928;8.410;2023-04-16T01:01:47;12.63;;;6.87;;
6013;SDS011;3035;49.928;8.410;2023-04-16T01:04:15;10.67;;;6.43;;
6013;SDS011;3035;49.928;8.410;2023-04-16T01:06:44;10.67;;;6.47;;
6013;SDS011;3035;49.928;8.410;2023-04-16T01:09:13;14.60;;;6.37;;
6013;SDS011;3035;49.928;8.410;2023-04-16T01:11:41;9.30;;;6.10;;
6013;SDS011;3035;49.928;8.410;2023-04-16T01:14:10;9.87;;;6.40;;
6013;SDS011;3035;49.928;8.410;2023-04-16T01:16:38;8.27;;;6.37;;
6013;SDS011;3035;49.928;8.410;2023-04-16T01:19:06;10.30;;;6.63;;
6013;SDS011;3035;49.928;8.410;2023-04-16T01:21:35;10.37;;;6.53;;
6013;SDS011;3035;49.928;8.410;2023-04-16T01:24:03;12.07;;;7.70;;
6013;SDS011;3035;49.928;8.410;2023-04-16T01:26:31;9.50;;;6.13;;
6013;SDS011;3035;49.928;8.410;2023-04-16T01:29:01;9.70;;;6.87;;
6013;SDS011;3035;49.928;8.410;2023-04-16T01:31:29;11.67;;;7.03;;
6013;SDS011;3035;49.928;8.410;2023-04-16T01:33:59;12.07;;;7.43;;
6013;SDS011;3035;49.928;8.410;2023-04-16T01:36:27;8.60;;;6.87;;
6013;SDS011;3035;49.928;8.410;2023-04-16T01:38:55;9.33;;;7.07;;
6013;SDS011;3035;49.928;8.410;2023-04-16T01:41:23;11.23;;;7.80;;
6013;SDS011;3035;49.928;8.410;2023-04-16T01:43:51;15.07;;;8.50;;
6013;SDS011;3035;49.928;8.410;2023-04-16T01:46:22;10.83;;;7.70;;
6013;SDS011;3035;49.928;8.410;2023-04-16T01:48:54;11.00;;;7.50;;
6013;SDS011;3035;49.928;8.410;2023-04-16T01:51:22;11.60;;;7.93;;
6013;SDS011;3035;49.928;8.410;2023-04-16T01:53:51;9.93;;;7.67;;
6013;SDS011;3035;49.928;8.410;2023-04-16T01:56:20;18.97;;;8.60;;
6013;SDS011;3035;49.928;8.410;2023-04-16T01:58:48;14.97;;;7.57;;
6013;SDS011;3035;49.928;8.410;2023-04-16T02:01:17;9.20;;;6.83;;
6013;SDS011;3035;49.928;8.410;2023-04-16T02:03:45;13.70;;;7.63;;
6013;SDS011;3035;49.928;8.410;2023-04-16T02:06:13;11.30;;;7.37;;
6013;SDS011;3035;49.928;8.410;2023-04-16T02:08:42;11.10;;;8.37;;
6013;SDS011;3035;49.928;8.410;2023-04-16T02:11:11;14.90;;;8.07;;
6013;SDS011;3035;49.928;8.410;2023-04-16T02:13:39;11.33;;;7.50;;
6013;SDS011;3035;49.928;8.410;2023-04-16T02:16:07;12.27;;;8.30;;
6013;SDS011;3035;49.928;8.410;2023-04-16T02:18:35;16.77;;;8.90;;
6013;SDS011;3035;49.928;8.410;2023-04-16T02:21:03;14.23;;;8.20;;
6013;SDS011;3035;49.928;8.410;2023-04-16T02:23:33;10.37;;;8.17;;
6013;SDS011;3035;49.928;8.410;2023-04-16T02:26:01;14.17;;;9.53;;
6013;SDS011;3035;49.928;8.410;2023-04-16T02:28:29;12.87;;;8.20;;
6013;SDS011;3035;49.928;8.410;2023-04-16T02:30:57;13.93;;;8.50;;
6013;SDS011;3035;49.928;8.410;2023-04-16T02:33:26;10.87;;;7.20;;
6013;SDS011;3035;49.928;8.410;2023-04-16T02:35:54;12.57;;;8.80;;
6013;SDS011;3035;49.928;8.410;2023-04-16T02:38:23;10.90;;;7.83;;
6013;SDS011;3035;49.928;8.410;2023-04-16T02:40:52;10.23;;;8.10;;
6013;SDS011;3035;49.928;8.410;2023-04-16T02:43:20;12.30;;;8.47;;
6013;SDS011;3035;49.928;8.410;2023-04-16T02:45:48;14.00;;;8.47;;
6013;SDS011;3035;49.928;8.410;2023-04-16T02:48:17;15.33;;;8.33;;
6013;SDS011;3035;49.928;8.410;2023-04-16T02:50:46;12.57;;;7.80;;
6013;SDS011;3035;49.928;8.410;2023-04-16T02:53:14;16.67;;;9.57;;
6013;SDS011;3035;49.928;8.410;2023-04-16T02:55:50;14.47;;;9.20;;
6013;SDS011;3035;49.928;8.410;2023-04-16T02:58:21;12.70;;;8.60;;
6013;SDS011;3035;49.928;8.410;2023-04-16T03:00:49;11.73;;;8.47;;
6013;SDS011;3035;49.928;8.410;2023-04-16T03:03:18;14.10;;;8.57;;
6013;SDS011;3035;49.928;8.410;2023-04-16T03:05:47;15.57;;;8.77;;
6013;SDS011;3035;49.928;8.410;2023-04-16T03:08:15;11.77;;;8.00;;
6013;SDS011;3035;49.928;8.410;2023-04-16T03:10:44;11.60;;;8.10;;
6013;SDS011;3035;49.928;8.410;2023-04-16T03:13:12;13.03;;;7.93;;
6013;SDS011;3035;49.928;8.410;2023-04-16T03:15:40;12.50;;;8.30;;
6013;SDS011;3035;49.928;8.410;2023-04-16T03:18:09;11.57;;;8.00;;
6013;SDS011;3035;49.928;8.410;2023-04-16T03:20:38;9.93;;;7.90;;
6013;SDS011;3035;49.928;8.410;2023-04-16T03:23:06;11.20;;;7.70;;
6013;SDS011;3035;49.928;8.410;2023-04-16T03:25:35;11.93;;;7.77;;
6013;SDS011;3035;49.928;8.410;2023-04-16T03:28:03;11.80;;;6.83;;
6013;SDS011;3035;49.928;8.410;2023-04-16T03:30:31;12.50;;;7.80;;
6013;SDS011;3035;49.928;8.410;2023-04-16T03:33:00;10.80;;;7.53;;
6013;SDS011;3035;49.928;8.410;2023-04-16T03:35:29;12.63;;;8.33;;
6013;SDS011;3035;49.928;8.410;2023-04-16T03:37:58;10.53;;;7.10;;
6013;SDS011;3035;49.928;8.410;2023-04-16T03:40:27;11.80;;;7.83;;
6013;SDS011;3035;49.928;8.410;2023-04-16T03:42:55;10.70;;;7.57;;
6013;SDS011;3035;49.928;8.410;2023-04-16T03:45:23;11.53;;;7.80;;
6013;SDS011;3035;49.928;8.410;2023-04-16T03:47:53;13.10;;;7.87;;
6013;SDS011;3035;49.928;8.410;2023-04-16T03:50:21;10.97;;;7.77;;
6013;SDS011;3035;49.928;8.410;2023-04-16T03:52:49;13.13;;;7.77;;
6013;SDS011;3035;49.928;8.410;2023-04-16T03:55:17;12.40;;;7.70;;
6013;SDS011;3035;49.928;8.410;2023-04-16T03:57:46;13.17;;;7.00;;
6013;SDS011;3035;49.928;8.410;2023-04-16T04:00:14;8.90;;;7.20;;
6013;SDS011;3035;49.928;8.410;2023-04-16T04:02:43;13.50;;;7.50;;
6013;SDS011;3035;49.928;8.410;2023-04-16T04:05:11;13.90;;;8.10;;
6013;SDS011;3035;49.928;8.410;2023-04-16T04:07:39;13.93;;;8.83;;
6013;SDS011;3035;49.928;8.410;2023-04-16T04:10:08;11.37;;;7.50;;
6013;SDS011;3035;49.928;8.410;2023-04-16T04:12:36;10.97;;;7.57;;
6013;SDS011;3035;49.928;8.410;2023-04-16T04:15:05;11.33;;;7.67;;
6013;SDS011;3035;49.928;8.410;2023-04-16T04:17:35;12.00;;;7.40;;
6013;SDS011;3035;49.928;8.410;2023-04-16T04:20:03;12.20;;;8.43;;
6013;SDS011;3035;49.928;8.410;2023-04-16T04:22:33;11.17;;;7.30;;
6013;SDS011;3035;49.928;8.410;2023-04-16T04:25:01;11.90;;;7.77;;
6013;SDS011;3035;49.928;8.410;2023-04-16T04:27:30;13.43;;;7.73;;
6013;SDS011;3035;49.928;8.410;2023-04-16T04:29:58;17.73;;;8.13;;
6013;SDS011;3035;49.928;8.410;2023-04-16T04:32:27;10.40;;;7.57;;
6013;SDS011;3035;49.928;8.410;2023-04-16T04:34:55;15.67;;;8.57;;
6013;SDS011;3035;49.928;8.410;2023-04-16T04:37:23;14.40;;;8.30;;
6013;SDS011;3035;49.928;8.410;2023-04-16T04:39:51;11.40;;;8.73;;
6013;SDS011;3035;49.928;8.410;2023-04-16T04:42:20;15.27;;;9.07;;
6013;SDS011;3035;49.928;8.410;2023-04-16T04:44:49;13.40;;;7.80;;
6013;SDS011;3035;49.928;8.410;2023-04-16T04:47:17;13.90;;;8.87;;
6013;SDS011;3035;49.928;8.410;2023-04-16T04:49:46;11.60;;;8.67;;
6013;SDS011;3035;49.928;8.410;2023-04-16T04:52:14;15.57;;;8.40;;
6013;SDS011;3035;49.928;8.410;2023-04-16T04:54:43;10.73;;;7.57;;
6013;SDS011;3035;49.928;8.410;2023-04-16T04:57:12;9.80;;;7.37;;
6013;SDS011;3035;49.928;8.410;2023-04-16T04:59:40;12.00;;;7.80;;
6013;SDS011;3035;49.928;8.410;2023-04-16T05:02:09;11.67;;;8.00;;
6013;SDS011;3035;49.928;8.410;2023-04-16T05:04:38;12.50;;;8.50;;
6013;SDS011;3035;49.928;8.410;2023-04-16T05:07:06;12.33;;;7.50;;
6013;SDS011;3035;49.928;8.410;2023-04-16T05:09:34;12.83;;;8.40;;
6013;SDS011;3035;49.928;8.410;2023-04-16T05:12:02;12.37;;;8.00;;
6013;SDS011;3035;49.928;8.410;2023-04-16T05:14:31;10.97;;;7.80;;
6013;SDS011;3035;49.928;8.410;2023-04-16T05:17:00;11.27;;;7.90;;
6013;SDS011;3035;49.928;8.410;2023-04-16T05:19:28;12.43;;;8.10;;
6013;SDS011;3035;49.928;8.410;2023-04-16T05:21:57;16.07;;;8.07;;
6013;SDS011;3035;49.928;8.410;2023-04-16T05:24:25;13.10;;;7.97;;
6013;SDS011;3035;49.928;8.410;2023-04-16T05:26:53;14.47;;;8.33;;
6013;SDS011;3035;49.928;8.410;2023-04-16T05:29:21;13.40;;;8.70;;
6013;SDS011;3035;49.928;8.410;2023-04-16T05:31:50;11.10;;;7.67;;
6013;SDS011;3035;49.928;8.410;2023-04-16T05:34:18;12.40;;;7.43;;
6013;SDS011;3035;49.928;8.410;2023-04-16T05:36:47;12.23;;;7.20;;
6013;SDS011;3035;49.928;8.410;2023-04-16T05:39:16;9.93;;;6.90;;
6013;SDS011;3035;49.928;8.410;2023-04-16T05:41:45;13.63;;;9.07;;
6013;SDS011;3035;49.928;8.410;2023-04-16T05:44:13;14.13;;;8.50;;
6013;SDS011;3035;49.928;8.410;2023-04-16T05:46:42;15.23;;;9.00;;
6013;SDS011;3035;49.928;8.410;2023-04-16T05:49:10;13.97;;;8.50;;
6013;SDS011;3035;49.928;8.410;2023-04-16T05:51:38;15.80;;;9.93;;
6013;SDS011;3035;49.928;8.410;2023-04-16T05:54:06;14.90;;;9.07;;
6013;SDS011;3035;49.928;8.410;2023-04-16T05:56:35;17.03;;;11.20;;
6013;SDS011;3035;49.928;8.410;2023-04-16T05:59:03;17.00;;;9.53;;
6013;SDS011;3035;49.928;8.410;2023-04-16T06:01:32;15.70;;;10.07;;
6013;SDS011;3035;49.928;8.410;2023-04-16T06:04:01;16.90;;;10.57;;
6013;SDS011;3035;49.928;8.410;2023-04-16T06:06:30;14.27;;;10.17;;
6013;SDS011;3035;49.928;8.410;2023-04-16T06:08:59;13.80;;;9.50;;
6013;SDS011;3035;49.928;8.410;2023-04-16T06:11:29;14.63;;;9.93;;
6013;SDS011;3035;49.928;8.410;2023-04-16T06:13:57;16.73;;;10.57;;
6013;SDS011;3035;49.928;8.410;2023-04-16T06:16:26;19.00;;;9.97;;
6013;SDS011;3035;49.928;8.410;2023-04-16T06:18:54;16.47;;;8.97;;
6013;SDS011;3035;49.928;8.410;2023-04-16T06:21:23;14.83;;;10.10;;
6013;SDS011;3035;49.928;8.410;2023-04-16T06:23:52;18.90;;;10.37;;
6013;SDS011;3035;49.928;8.410;2023-04-16T06:26:21;13.13;;;8.63;;
6013;SDS011;3035;49.928;8.410;2023-04-16T06:28:50;16.70;;;9.67;;
6013;SDS011;3035;49.928;8.410;2023-04-16T06:31:19;17.93;;;8.80;;
6013;SDS011;3035;49.928;8.410;2023-04-16T06:33:47;15.20;;;10.17;;
6013;SDS011;3035;49.928;8.410;2023-04-16T06:36:15;15.97;;;8.90;;
6013;SDS011;3035;49.928;8.410;2023-04-16T06:38:44;14.30;;;9.93;;
6013;SDS011;3035;49.928;8.410;2023-04-16T06:41:12;16.20;;;9.93;;
6013;SDS011;3035;49.928;8.410;2023-04-16T06:43:41;17.00;;;9.97;;
6013;SDS011;3035;49.928;8.410;2023-04-16T06:46:09;15.43;;;10.10;;
6013;SDS011;3035;49.928;8.410;2023-04-16T06:48:38;15.97;;;9.53;;
6013;SDS011;3035;49.928;8.410;2023-04-16T06:51:06;15.20;;;9.53;;
6013;SDS011;3035;49.928;8.410;2023-04-16T06:53:35;14.60;;;9.47;;
6013;SDS011;3035;49.928;8.410;2023-04-16T06:56:03;16.10;;;10.67;;
6013;SDS011;3035;49.928;8.410;2023-04-16T06:58:32;16.33;;;10.80;;
6013;SDS011;3035;49.928;8.410;2023-04-16T07:01:00;15.90;;;10.30;;
6013;SDS011;3035;49.928;8.410;2023-04-16T07:03:30;17.73;;;10.93;;
6013;SDS011;3035;49.928;8.410;2023-04-16T07:05:58;17.00;;;10.60;;
6013;SDS011;3035;49.928;8.410;2023-04-16T07:08:26;19.17;;;10.57;;
6013;SDS011;3035;49.928;8.410;2023-04-16T07:10:54;16.30;;;10.13;;
6013;SDS011;3035;49.928;8.410;2023-04-16T07:13:22;18.33;;;11.17;;
6013;SDS011;3035;49.928;8.410;2023-04-16T07:15:51;17.40;;;11.30;;
6013;SDS011;3035;49.928;8.410;2023-04-16T07:18:19;16.50;;;10.43;;
6013;SDS011;3035;49.928;8.410;2023-04-16T07:20:47;19.43;;;11.60;;
6013;SDS011;3035;49.928;8.410;2023-04-16T07:23:15;19.10;;;11.33;;
6013;SDS011;3035;49.928;8.410;2023-04-16T07:25:44;18.57;;;11.20;;
6013;SDS011;3035;49.928;8.410;2023-04-16T07:28:12;18.27;;;11.80;;
6013;SDS011;3035;49.928;8.410;2023-04-16T07:30:43;17.90;;;10.03;;
6013;SDS011;3035;49.928;8.410;2023-04-16T07:33:11;21.03;;;11.30;;
6013;SDS011;3035;49.928;8.410;2023-04-16T07:35:39;22.93;;;11.03;;
6013;SDS011;3035;49.928;8.410;2023-04-16T07:38:07;16.73;;;10.13;;
6013;SDS011;3035;49.928;8.410;2023-04-16T07:40:36;17.23;;;9.57;;
6013;SDS011;3035;49.928;8.410;2023-04-16T07:43:04;16.23;;;9.87;;
6013;SDS011;3035;49.928;8.410;2023-04-16T07:45:32;14.07;;;8.90;;
6013;SDS011;3035;49.928;8.410;2023-04-16T07:48:01;14.90;;;9.03;;
6013;SDS011;3035;49.928;8.410;2023-04-16T07:50:29;11.40;;;7.43;;
6013;SDS011;3035;49.928;8.410;2023-04-16T07:52:57;10.03;;;6.80;;
6013;SDS011;3035;49.928;8.410;2023-04-16T07:55:26;11.80;;;7.90;;
6013;SDS011;3035;49.928;8.410;2023-04-16T07:57:54;10.27;;;7.13;;
6013;SDS011;3035;49.928;8.410;2023-04-16T08:00:23;11.17;;;7.20;;
6013;SDS011;3035;49.928;8.410;2023-04-16T08:02:51;10.37;;;7.10;;
6013;SDS011;3035;49.928;8.410;2023-04-16T08:05:20;9.63;;;6.83;;
6013;SDS011;3035;49.928;8.410;2023-04-16T08:07:48;8.87;;;6.60;;
6013;SDS011;3035;49.928;8.410;2023-04-16T08:10:16;14.67;;;7.23;;
6013;SDS011;3035;49.928;8.410;2023-04-16T08:12:44;10.07;;;6.70;;
6013;SDS011;3035;49.928;8.410;2023-04-16T08:15:14;8.30;;;6.00;;
6013;SDS011;3035;49.928;8.410;2023-04-16T08:17:42;10.10;;;7.17;;
6013;SDS011;3035;49.928;8.410;2023-04-16T08:20:10;11.70;;;7.40;;
6013;SDS011;3035;49.928;8.410;2023-04-16T08:22:38;16.80;;;7.57;;
6013;SDS011;3035;49.928;8.410;2023-04-16T08:25:08;9.43;;;7.23;;
6013;SDS011;3035;49.928;8.410;2023-04-16T08:27:37;14.40;;;7.57;;
6013;SDS011;3035;49.928;8.410;2023-04-16T08:30:05;11.53;;;7.77;;
6013;SDS011;3035;49.928;8.410;2023-04-16T08:32:34;11.33;;;7.17;;
6013;SDS011;3035;49.928;8.410;2023-04-16T08:35:02;10.53;;;7.20;;
6013;SDS011;3035;49.928;8.410;2023-04-16T08:37:31;12.93;;;8.27;;
6013;SDS011;3035;49.928;8.410;2023-04-16T08:40:00;12.60;;;8.37;;
6013;SDS011;3035;49.928;8.410;2023-04-16T08:42:30;14.57;;;9.10;;
6013;SDS011;3035;49.928;8.410;2023-04-16T08:45:07;12.90;;;9.10;;
6013;SDS011;3035;49.928;8.410;2023-04-16T08:47:40;11.83;;;8.47;;
6013;SDS011;3035;49.928;8.410;2023-04-16T08:50:08;12.70;;;9.60;;
6013;SDS011;3035;49.928;8.410;2023-04-16T08:52:38;13.60;;;9.50;;
6013;SDS011;3035;49.928;8.410;2023-04-16T08:55:08;15.00;;;10.53;;
6013;SDS011;3035;49.928;8.410;2023-04-16T08:57:47;16.37;;;11.60;;
6013;SDS011;3035;49.928;8.410;2023-04-16T09:00:25;17.37;;;9.60;;
6013;SDS011;3035;49.928;8.410;2023-04-16T09:02:53;15.00;;;9.90;;
6013;SDS011;3035;49.928;8.410;2023-04-16T09:05:22;13.83;;;9.37;;
6013;SDS011;3035;49.928;8.410;2023-04-16T09:07:50;15.97;;;10.10;;
6013;SDS011;3035;49.928;8.410;2023-04-16T09:10:19;15.40;;;10.20;;
6013;SDS011;3035;49.928;8.410;2023-04-16T09:12:48;16.13;;;10.00;;
6013;SDS011;3035;49.928;8.410;2023-04-16T09:15:16;16.43;;;9.70;;
6013;SDS011;3035;49.928;8.410;2023-04-16T09:17:44;17.30;;;10.17;;
6013;SDS011;3035;49.928;8.410;2023-04-16T09:20:13;17.30;;;10.87;;
6013;SDS011;3035;49.928;8.410;2023-04-16T09:22:41;12.27;;;9.00;;
6013;SDS011;3035;49.928;8.410;2023-04-16T09:25:10;18.17;;;10.10;;
6013;SDS011;3035;49.928;8.410;2023-04-16T09:27:38;16.73;;;9.57;;
6013;SDS011;3035;49.928;8.410;2023-04-16T09:32:48;17.67;;;11.23;;
6013;SDS011;3035;49.928;8.410;2023-04-16T09:35:18;18.63;;;11.83;;
6013;SDS011;3035;49.928;8.410;2023-04-16T09:37:54;23.03;;;11.37;;
6013;SDS011;3035;49.928;8.410;2023-04-16T09:40:24;17.40;;;11.57;;
6013;SDS011;3035;49.928;8.410;2023-04-16T09:42:55;16.90;;;11.77;;
6013;SDS011;3035;49.928;8.410;2023-04-16T09:45:20;17.20;;;11.50;;
6013;SDS011;3035;49.928;8.410;2023-04-16T09:47:49;17.60;;;11.10;;
6013;SDS011;3035;49.928;8.410;2023-04-16T09:50:18;18.07;;;11.10;;
6013;SDS011;3035;49.928;8.410;2023-04-16T09:52:47;18.93;;;12.50;;
6013;SDS011;3035;49.928;8.410;2023-04-16T09:55:15;21.77;;;12.17;;
6013;SDS011;3035;49.928;8.410;2023-04-16T09:57:43;17.27;;;11.70;;
6013;SDS011;3035;49.928;8.410;2023-04-16T10:00:11;18.53;;;11.60;;
6013;SDS011;3035;49.928;8.410;2023-04-16T10:02:41;21.00;;;12.63;;
6013;SDS011;3035;49.928;8.410;2023-04-16T10:05:10;17.57;;;11.10;;
6013;SDS011;3035;49.928;8.410;2023-04-16T10:07:38;26.10;;;13.00;;
6013;SDS011;3035;49.928;8.410;2023-04-16T10:10:07;22.50;;;11.83;;
6013;SDS011;3035;49.928;8.410;2023-04-16T10:12:36;18.80;;;11.97;;
6013;SDS011;3035;49.928;8.410;2023-04-16T10:15:04;18.80;;;11.60;;
6013;SDS011;3035;49.928;8.410;2023-04-16T10:17:34;19.83;;;11.60;;
6013;SDS011;3035;49.928;8.410;2023-04-16T10:20:02;20.03;;;11.93;;
6013;SDS011;3035;49.928;8.410;2023-04-16T10:22:32;20.73;;;12.27;;
6013;SDS011;3035;49.928;8.410;2023-04-16T10:25:01;21.27;;;13.37;;
6013;SDS011;3035;49.928;8.410;2023-04-16T10:27:29;19.50;;;11.80;;
6013;SDS011;3035;49.928;8.410;2023-04-16T10:29:58;21.27;;;12.30;;
6013;SDS011;3035;49.928;8.410;2023-04-16T10:32:26;15.90;;;10.63;;
6013;SDS011;3035;49.928;8.410;2023-04-16T10:34:54;19.03;;;10.73;;
6013;SDS011;3035;49.928;8.410;2023-04-16T10:37:28;17.60;;;9.83;;
6013;SDS011;3035;49.928;8.410;2023-04-16T10:39:57;17.70;;;11.80;;
6013;SDS011;3035;49.928;8.410;2023-04-16T10:42:25;19.80;;;10.97;;
6013;SDS011;3035;49.928;8.410;2023-04-16T10:44:54;14.70;;;10.50;;
6013;SDS011;3035;49.928;8.410;2023-04-16T10:47:23;19.03;;;11.50;;
6013;SDS011;3035;49.928;8.410;2023-04-16T10:49:50;24.30;;;12.13;;
6013;SDS011;3035;49.928;8.410;2023-04-16T10:52:18;19.17;;;11.57;;
6013;SDS011;3035;49.928;8.410;2023-04-16T10:54:47;20.10;;;11.70;;
6013;SDS011;3035;49.928;8.410;2023-04-16T10:57:16;22.23;;;13.20;;
6013;SDS011;3035;49.928;8.410;2023-04-16T10:59:44;21.37;;;13.03;;
6013;SDS011;3035;49.928;8.410;2023-04-16T11:02:13;17.23;;;12.03;;
6013;SDS011;3035;49.928;8.410;2023-04-16T11:04:42;18.43;;;12.50;;
6013;SDS011;3035;49.928;8.410;2023-04-16T11:09:59;20.80;;;12.53;;
6013;SDS011;3035;49.928;8.410;2023-04-16T11:12:33;19.30;;;12.83;;
6013;SDS011;3035;49.928;8.410;2023-04-16T11:15:04;24.60;;;13.17;;
6013;SDS011;3035;49.928;8.410;2023-04-16T11:17:37;22.60;;;12.00;;
6013;SDS011;3035;49.928;8.410;2023-04-16T11:20:13;26.83;;;13.20;;
6013;SDS011;3035;49.928;8.410;2023-04-16T11:22:42;18.63;;;12.20;;
6013;SDS011;3035;49.928;8.410;2023-04-16T11:25:11;20.27;;;13.30;;
6013;SDS011;3035;49.928;8.410;2023-04-16T11:27:40;25.10;;;13.70;;
6013;SDS011;3035;49.928;8.410;2023-04-16T11:30:08;28.20;;;14.33;;
6013;SDS011;3035;49.928;8.410;2023-04-16T11:32:38;28.70;;;13.37;;
6013;SDS011;3035;49.928;8.410;2023-04-16T11:35:12;23.17;;;13.30;;
6013;SDS011;3035;49.928;8.410;2023-04-16T11:37:42;32.47;;;15.87;;
6013;SDS011;3035;49.928;8.410;2023-04-16T11:40:10;27.20;;;14.50;;
6013;SDS011;3035;49.928;8.410;2023-04-16T11:42:40;26.00;;;14.80;;
6013;SDS011;3035;49.928;8.410;2023-04-16T11:45:08;26.73;;;14.30;;
6013;SDS011;3035;49.928;8.410;2023-04-16T11:47:43;27.47;;;14.47;;
6013;SDS011;3035;49.928;8.410;2023-04-16T11:50:17;33.23;;;16.67;;
6013;SDS011;3035;49.928;8.410;2023-04-16T11:52:47;23.10;;;15.57;;
6013;SDS011;3035;49.928;8.410;2023-04-16T11:55:15;28.00;;;15.97;;
6013;SDS011;3035;49.928;8.410;2023-04-16T11:57:44;30.43;;;17.30;;
6013;SDS011;3035;49.928;8.410;2023-04-16T12:00:12;24.97;;;15.77;;
6013;SDS011;3035;49.928;8.410;2023-04-16T12:02:43;31.33;;;15.10;;
6013;SDS011;3035;49.928;8.410;2023-04-16T12:07:53;28.97;;;14.70;;
6013;SDS011;3035;49.928;8.410;2023-04-16T12:10:21;28.57;;;14.87;;
6013;SDS011;3035;49.928;8.410;2023-04-16T12:12:50;22.93;;;14.23;;
6013;SDS011;3035;49.928;8.410;2023-04-16T12:15:19;25.27;;;15.20;;
6013;SDS011;3035;49.928;8.410;2023-04-16T12:17:47;23.33;;;13.10;;
6013;SDS011;3035;49.928;8.410;2023-04-16T12:20:16;26.03;;;14.77;;
6013;SDS011;3035;49.928;8.410;2023-04-16T12:22:45;21.07;;;13.53;;
6013;SDS011;3035;49.928;8.410;2023-04-16T12:25:13;28.37;;;14.70;;
6013;SDS011;3035;49.928;8.410;2023-04-16T12:27:43;25.73;;;15.13;;
6013;SDS011;3035;49.928;8.410;2023-04-16T12:30:13;23.97;;;14.00;;
6013;SDS011;3035;49.928;8.410;2023-04-16T12:32:42;19.97;;;13.50;;
6013;SDS011;3035;49.928;8.410;2023-04-16T12:35:11;25.70;;;14.37;;
6013;SDS011;3035;49.928;8.410;2023-04-16T12:37:39;22.23;;;13.83;;
6013;SDS011;3035;49.928;8.410;2023-04-16T12:40:08;22.57;;;14.20;;
6013;SDS011;3035;49.928;8.410;2023-04-16T12:42:37;25.27;;;14.70;;
6013;SDS011;3035;49.928;8.410;2023-04-16T12:45:05;27.53;;;15.03;;
6013;SDS011;3035;49.928;8.410;2023-04-16T12:47:34;27.10;;;15.93;;
6013;SDS011;3035;49.928;8.410;2023-04-16T12:50:03;22.47;;;15.07;;
6013;SDS011;3035;49.928;8.410;2023-04-16T12:52:33;20.83;;;14.43;;
6013;SDS011;3035;49.928;8.410;2023-04-16T12:55:01;21.43;;;13.80;;
6013;SDS011;3035;49.928;8.410;2023-04-16T12:57:29;26.33;;;14.07;;
6013;SDS011;3035;49.928;8.410;2023-04-16T12:59:58;23.63;;;14.20;;
6013;SDS011;3035;49.928;8.410;2023-04-16T13:02:26;21.77;;;14.17;;
6013;SDS011;3035;49.928;8.410;2023-04-16T13:04:55;20.33;;;14.87;;
6013;SDS011;3035;49.928;8.410;2023-04-16T13:07:24;24.50;;;15.23;;
6013;SDS011;3035;49.928;8.410;2023-04-16T13:09:53;24.30;;;14.57;;
6013;SDS011;3035;49.928;8.410;2023-04-16T13:12:21;25.30;;;14.87;;
6013;SDS011;3035;49.928;8.410;2023-04-16T13:14:50;25.37;;;15.37;;
6013;SDS011;3035;49.928;8.410;2023-04-16T13:17:18;24.17;;;14.23;;
6013;SDS011;3035;49.928;8.410;2023-04-16T13:19:47;29.10;;;15.33;;
6013;SDS011;3035;49.928;8.410;2023-04-16T13:22:15;25.60;;;14.53;;
6013;SDS011;3035;49.928;8.410;2023-04-16T13:24:44;24.20;;;15.40;;
6013;SDS011;3035;49.928;8.410;2023-04-16T13:27:13;21.63;;;13.80;;
6013;SDS011;3035;49.928;8.410;2023-04-16T13:29:42;29.03;;;14.83;;
6013;SDS011;3035;49.928;8.410;2023-04-16T13:32:10;22.77;;;13.90;;
6013;SDS011;3035;49.928;8.410;2023-04-16T13:34:40;20.03;;;13.20;;
6013;SDS011;3035;49.928;8.410;2023-04-16T13:37:08;21.43;;;13.60;;
6013;SDS011;3035;49.928;8.410;2023-04-16T13:39:36;18.97;;;12.50;;
6013;SDS011;3035;49.928;8.410;2023-04-16T13:42:04;27.23;;;13.17;;
6013;SDS011;3035;49.928;8.410;2023-04-16T13:44:33;20.13;;;12.37;;
6013;SDS011;3035;49.928;8.410;2023-04-16T13:47:01;14.70;;;11.37;;
6013;SDS011;3035;49.928;8.410;2023-04-16T13:49:30;16.53;;;11.10;;
6013;SDS011;3035;49.928;8.410;2023-04-16T13:51:59;17.03;;;11.23;;
6013;SDS011;3035;49.928;8.410;2023-04-16T13:54:27;14.63;;;10.90;;
6013;SDS011;3035;49.928;8.410;2023-04-16T13:56:55;15.43;;;11.13;;
6013;SDS011;3035;49.928;8.410;2023-04-16T13:59:23;18.97;;;11.10;;
6013;SDS011;3035;49.928;8.410;2023-04-16T14:01:53;16.90;;;11.50;;
6013;SDS011;3035;49.928;8.410;2023-04-16T14:04:21;20.23;;;11.97;;
6013;SDS011;3035;49.928;8.410;2023-04-16T14:06:50;16.23;;;10.80;;
6013;SDS011;3035;49.928;8.410;2023-04-16T14:09:18;19.67;;;11.80;;
6013;SDS011;3035;49.928;8.410;2023-04-16T14:11:46;19.97;;;11.70;;
6013;SDS011;3035;49.928;8.410;2023-04-16T14:14:14;14.73;;;11.53;;
6013;SDS011;3035;49.928;8.410;2023-04-16T14:16:43;16.47;;;10.53;;
6013;SDS011;3035;49.928;8.410;2023-04-16T14:19:12;15.27;;;10.23;;
6013;SDS011;3035;49.928;8.410;2023-04-16T14:21:40;16.20;;;10.23;;
6013;SDS011;3035;49.928;8.410;2023-04-16T14:24:09;15.13;;;10.50;;
6013;SDS011;3035;49.928;8.410;2023-04-16T14:26:37;16.60;;;11.17;;
6013;SDS011;3035;49.928;8.410;2023-04-16T14:29:06;15.60;;;11.43;;
6013;SDS011;3035;49.928;8.410;2023-04-16T14:31:35;16.30;;;10.20;;
6013;SDS011;3035;49.928;8.410;2023-04-16T14:34:03;17.40;;;11.57;;
6013;SDS011;3035;49.928;8.410;2023-04-16T14:36:31;15.53;;;10.17;;
6013;SDS011;3035;49.928;8.410;2023-04-16T14:38:59;16.70;;;11.53;;
6013;SDS011;3035;49.928;8.410;2023-04-16T14:41:27;15.90;;;10.47;;
6013;SDS011;3035;49.928;8.410;2023-04-16T14:43:56;14.33;;;9.03;;
6013;SDS011;3035;49.928;8.410;2023-04-16T14:46:24;14.97;;;9.73;;
6013;SDS011;3035;49.928;8.410;2023-04-16T14:48:52;13.57;;;9.03;;
6013;SDS011;3035;49.928;8.410;2023-04-16T14:51:20;13.90;;;9.63;;
6013;SDS011;3035;49.928;8.410;2023-04-16T14:53:48;10.03;;;7.30;;
6013;SDS011;3035;49.928;8.410;2023-04-16T14:56:18;12.23;;;7.87;;
6013;SDS011;3035;49.928;8.410;2023-04-16T14:58:46;10.80;;;8.13;;
6013;SDS011;3035;49.928;8.410;2023-04-16T15:01:14;9.30;;;7.57;;
6013;SDS011;3035;49.928;8.410;2023-04-16T15:03:42;11.43;;;7.67;;
6013;SDS011;3035;49.928;8.410;2023-04-16T15:06:10;9.73;;;7.40;;
6013;SDS011;3035;49.928;8.410;2023-04-16T15:08:40;10.60;;;7.47;;
6013;SDS011;3035;49.928;8.410;2023-04-16T15:11:08;8.87;;;7.30;;
6013;SDS011;3035;49.928;8.410;2023-04-16T15:13:37;14.63;;;8.00;;
6013;SDS011;3035;49.928;8.410;2023-04-16T15:16:05;9.63;;;6.80;;